Terminal Aerodrome Forecast
Issued by NWS Paducah, KY

Home | Current Version | Previous Version | Text Only | Print | Product List | Glossary On
Versions: 1 2 3 4 5 6 7 8 9 10 11 12 13 14 15
000
FTUS43 KPAH 140520
TAFEVV
TAF
KEVV 140520Z 1406/1506 VRB02KT P6SM SKC
     FM141300 16005KT P6SM SCT060
     FM141700 19008G15KT P6SM SKC
     FM142200 18006KT P6SM SCT035=

USA.gov is the U.S. government's official web portal to all federal, state and local government web resources and services.